Time;durP1;ratioP1;P1;durP2;ratioP2;P2;SDS_P1;SDS_P2;PMS_P1;PMS_P2;Temp;Humidity;BMP_temperature;BMP_pressure;BME280_temperature;BME280_humidity;BME280_pressure;Samples;Min_cycle;Max_cycle;Signal;HPM_P1;HPM_P2
2021/12/07 00:01:10;;;;;;;20.33;8.15;;;;;;;-2.18;72.34;100184.00;4892825;29;20051;-76
2021/12/07 00:03:36;;;;;;;17.77;8.88;;;;;;;-2.18;71.78;100191.66;4892735;29;20448;-77
2021/12/07 00:06:03;;;;;;;19.83;8.77;;;;;;;-2.13;72.35;100167.25;4893784;29;20197;-76
2021/12/07 00:08:29;;;;;;;18.42;8.05;;;;;;;-2.07;71.51;100175.22;4892961;29;20409;-76
2021/12/07 00:10:56;;;;;;;16.52;6.38;;;;;;;-2.01;71.38;100184.81;4878063;29;20040;-75
2021/12/07 00:13:23;;;;;;;19.60;9.20;;;;;;;-2.17;71.47;100189.19;4900565;29;20086;-76
2021/12/07 00:15:49;;;;;;;18.90;8.23;;;;;;;-2.15;72.80;100168.84;4893073;29;20052;-78
2021/12/07 00:18:14;;;;;;;19.83;8.57;;;;;;;-2.03;72.63;100154.16;4895220;29;20040;-76
2021/12/07 00:20:40;;;;;;;17.08;8.32;;;;;;;-1.90;71.88;100165.81;4903483;29;20052;-75
2021/12/07 00:23:09;;;;;;;16.95;7.78;;;;;;;-1.85;72.08;100161.78;4903322;29;20044;-78
2021/12/07 00:25:36;;;;;;;16.90;8.38;;;;;;;-1.89;72.67;100175.22;4896856;29;20203;-78
2021/12/07 00:28:03;;;;;;;22.30;8.52;;;;;;;-1.86;72.49;100162.56;4901453;29;20105;-79
2021/12/07 00:30:32;;;;;;;18.90;8.27;;;;;;;-1.93;72.88;100152.03;4892640;29;20104;-80
2021/12/07 00:33:14;;;;;;;16.58;8.00;;;;;;;-1.85;72.02;100163.47;4895611;29;20047;-80
2021/12/07 00:35:41;;;;;;;17.75;8.27;;;;;;;-1.80;72.50;100156.03;4895224;29;20048;-81
2021/12/07 00:38:20;;;;;;;21.13;9.00;;;;;;;-1.76;72.72;100130.72;4894830;29;20707;-78
2021/12/07 00:40:48;;;;;;;23.40;9.38;;;;;;;-1.71;72.50;100139.47;4893252;29;20040;-77
2021/12/07 00:43:15;;;;;;;16.30;7.43;;;;;;;-1.86;71.93;100128.56;4894413;29;20044;-78
2021/12/07 00:45:45;;;;;;;19.75;7.82;;;;;;;-1.89;71.19;100144.59;4894410;29;20501;-76
2021/12/07 00:48:14;;;;;;;20.92;8.77;;;;;;;-1.78;72.94;100123.81;4892905;29;20036;-77
2021/12/07 00:50:43;;;;;;;18.88;8.45;;;;;;;-1.72;72.29;100137.72;4894809;29;20135;-77
2021/12/07 00:53:10;;;;;;;18.25;8.18;;;;;;;-1.71;72.07;100133.50;4896346;29;20040;-77
2021/12/07 00:55:39;;;;;;;17.08;8.27;;;;;;;-1.94;72.18;100102.69;4905612;29;20134;-77
2021/12/07 00:58:16;;;;;;;16.50;7.82;;;;;;;-1.78;71.79;100122.13;4913700;29;20033;-76
2021/12/07 01:00:47;;;;;;;18.02;7.50;;;;;;;-1.95;72.88;100097.50;4899681;29;20075;-78
2021/12/07 01:03:13;;;;;;;17.77;7.30;;;;;;;-2.01;71.39;100073.47;4902515;29;20079;-78
2021/12/07 01:05:46;;;;;;;16.10;7.35;;;;;;;-2.03;72.18;100085.28;4864058;29;20060;-78
2021/12/07 01:08:22;;;;;;;18.08;8.32;;;;;;;-1.74;72.64;100102.72;4895534;29;20131;-78
2021/12/07 01:24:46;;;;;;;18.05;7.75;;;;;;;-2.00;72.77;100090.53;4892799;29;21386;-77
2021/12/07 01:27:16;;;;;;;14.63;7.40;;;;;;;-1.76;73.85;100091.56;4893759;29;20060;-77
2021/12/07 01:29:46;;;;;;;16.17;7.60;;;;;;;-1.91;73.17;100061.13;4876169;29;20044;-77
2021/12/07 01:46:12;;;;;;;17.42;7.90;;;;;;;-2.09;73.84;100068.78;4894120;29;20045;-78
2021/12/07 02:01:45;;;;;;;11.80;6.18;;;;;;;-1.71;72.89;100052.69;4894397;29;20188;-76
2021/12/07 02:04:11;;;;;;;16.13;7.32;;;;;;;-1.74;72.86;100044.03;4897531;29;20513;-76
2021/12/07 02:06:37;;;;;;;13.43;7.03;;;;;;;-1.72;73.20;100045.84;4912642;29;20048;-77
2021/12/07 02:09:05;;;;;;;14.95;5.95;;;;;;;-2.06;72.65;100007.72;4914199;29;20048;-77
2021/12/07 02:11:32;;;;;;;13.32;7.03;;;;;;;-1.88;74.21;100018.78;4909622;29;20060;-77
2021/12/07 02:16:29;;;;;;;15.90;7.63;;;;;;;-1.94;73.66;99969.16;4914117;29;20119;-76
2021/12/07 02:18:59;;;;;;;9.52;5.38;;;;;;;-1.80;73.01;99998.72;4905185;29;20132;-79
2021/12/07 02:21:26;;;;;;;16.25;6.88;;;;;;;-1.72;72.96;100027.13;4876673;29;20109;-76
2021/12/07 02:24:03;;;;;;;12.57;6.45;;;;;;;-1.76;74.02;100012.47;4908360;29;20051;-76
2021/12/07 02:26:28;;;;;;;14.88;7.18;;;;;;;-1.79;72.42;100018.31;4899360;29;20056;-77
2021/12/07 02:28:54;;;;;;;16.42;7.90;;;;;;;-1.77;74.24;100010.72;4901118;29;20040;-77
2021/12/07 02:31:21;;;;;;;17.35;7.60;;;;;;;-1.90;72.82;99997.44;4894392;29;20510;-77
2021/12/07 02:33:48;;;;;;;15.80;7.97;;;;;;;-1.86;73.68;100004.41;4893710;29;20048;-79
2021/12/07 02:36:14;;;;;;;13.90;6.90;;;;;;;-1.80;73.55;100006.38;4895004;29;20048;-77
2021/12/07 02:38:40;;;;;;;18.25;8.20;;;;;;;-1.63;74.41;100001.13;4907613;29;20431;-78
2021/12/07 02:41:06;;;;;;;18.35;7.97;;;;;;;-1.56;73.88;100005.69;4894093;29;20123;-78
2021/12/07 02:43:32;;;;;;;16.38;7.80;;;;;;;-1.71;72.99;99981.25;4891006;29;20425;-77
2021/12/07 02:45:58;;;;;;;18.70;7.88;;;;;;;-1.61;73.01;100000.38;4890915;29;20394;-79
2021/12/07 02:48:24;;;;;;;18.15;7.25;;;;;;;-1.56;73.63;99998.91;4890608;29;20045;-76
2021/12/07 02:50:52;;;;;;;17.42;7.70;;;;;;;-1.62;73.37;99988.41;4889969;29;20040;-79
2021/12/07 02:53:26;;;;;;;15.88;8.25;;;;;;;-1.51;74.10;99999.09;4883566;29;20044;-78
2021/12/07 02:55:54;;;;;;;16.42;7.88;;;;;;;-1.78;73.54;99943.53;4884507;29;20040;-75
2021/12/07 02:58:20;;;;;;;15.05;7.45;;;;;;;-1.69;73.52;99978.78;4889515;29;20194;-77
2021/12/07 03:00:59;;;;;;;14.48;7.43;;;;;;;-1.64;73.44;99979.81;4874599;29;20965;-79
2021/12/07 03:03:26;;;;;;;14.85;7.00;;;;;;;-1.76;72.96;99964.84;4890270;29;20075;-78
2021/12/07 03:27:28;;;;;;;13.82;6.82;;;;;;;-1.83;72.97;99910.13;4889928;29;20095;-77
2021/12/07 03:29:55;;;;;;;14.90;7.25;;;;;;;-1.75;73.84;99920.66;4905703;29;20041;-78
2021/12/07 03:32:21;;;;;;;14.65;7.30;;;;;;;-1.79;74.08;99906.06;4890298;29;20053;-78
2021/12/07 03:34:47;;;;;;;14.13;7.03;;;;;;;-1.49;74.85;99912.38;4891452;29;20047;-77
2021/12/07 03:37:14;;;;;;;16.30;7.15;;;;;;;-1.45;74.71;99886.19;4871370;29;20065;-78
2021/12/07 03:39:40;;;;;;;16.88;7.85;;;;;;;-1.56;73.15;99881.50;4888745;29;20056;-77
2021/12/07 03:42:06;;;;;;;17.60;8.35;;;;;;;-1.44;74.79;99904.09;4890649;29;21038;-78
2021/12/07 03:44:33;;;;;;;13.40;7.30;;;;;;;-1.42;74.10;99912.69;4892406;29;20738;-79
2021/12/07 03:46:59;;;;;;;15.73;7.13;;;;;;;-1.74;73.66;99878.19;4890372;29;20053;-77
2021/12/07 03:49:25;;;;;;;19.25;8.70;;;;;;;-1.69;74.34;99892.00;4890305;29;20394;-78
2021/12/07 03:51:51;;;;;;;18.13;8.48;;;;;;;-1.46;74.71;99889.53;4889269;29;20055;-76
2021/12/07 03:54:17;;;;;;;19.67;8.63;;;;;;;-1.58;74.22;99866.94;4873404;29;20083;-74
2021/12/07 03:56:43;;;;;;;15.48;7.80;;;;;;;-1.54;73.81;99900.28;4890122;29;20068;-75
2021/12/07 03:59:09;;;;;;;17.50;9.20;;;;;;;-1.72;74.17;99863.81;4892061;29;20045;-75
2021/12/07 04:01:35;;;;;;;19.48;8.43;;;;;;;-1.45;74.89;99886.19;4889802;29;20076;-76
2021/12/07 04:04:03;;;;;;;11.38;5.78;;;;;;;-1.61;73.48;99882.97;4888919;29;20053;-77
2021/12/07 04:06:29;;;;;;;15.50;7.60;;;;;;;-1.71;73.92;99874.06;4881545;29;20231;-78
2021/12/07 04:08:55;;;;;;;19.10;7.57;;;;;;;-1.65;74.98;99860.69;4889951;29;20044;-76
2021/12/07 04:11:21;;;;;;;13.13;6.88;;;;;;;-1.61;74.97;99870.22;4889434;29;20059;-79
2021/12/07 04:13:47;;;;;;;14.23;7.20;;;;;;;-1.55;74.14;99864.50;4859738;29;20438;-76
2021/12/07 04:16:18;;;;;;;14.23;7.38;;;;;;;-1.62;74.34;99842.94;4889869;29;20123;-78
2021/12/07 04:18:47;;;;;;;15.73;7.93;;;;;;;-1.46;73.91;99856.34;4873904;29;21507;-78
2021/12/07 04:21:13;;;;;;;18.35;8.50;;;;;;;-1.55;74.90;99844.09;4889827;29;20041;-76
2021/12/07 04:23:39;;;;;;;16.58;7.82;;;;;;;-1.37;75.07;99838.84;4891551;29;20048;-77
2021/12/07 04:26:08;;;;;;;14.32;7.40;;;;;;;-1.36;74.73;99850.78;4878696;29;20108;-77
2021/12/07 04:28:34;;;;;;;19.50;8.45;;;;;;;-1.36;74.18;99832.91;4896679;29;20055;-78
2021/12/07 04:31:00;;;;;;;16.67;8.00;;;;;;;-1.30;74.54;99845.94;4897155;29;20433;-77
2021/12/07 04:33:29;;;;;;;19.35;8.27;;;;;;;-1.59;73.86;99803.94;4893181;29;20044;-76
2021/12/07 04:35:55;;;;;;;14.70;6.75;;;;;;;-1.47;75.09;99827.38;4893195;29;20100;-75
2021/12/07 04:38:22;;;;;;;11.38;6.43;;;;;;;-1.70;75.05;99783.09;4876660;29;20041;-79
2021/12/07 04:40:48;;;;;;;12.75;6.45;;;;;;;-1.75;74.50;99784.56;4892757;29;21830;-76
2021/12/07 04:43:14;;;;;;;15.18;7.20;;;;;;;-1.73;75.00;99785.50;4894274;29;20469;-79
2021/12/07 04:48:36;;;;;;;13.00;6.32;;;;;;;-1.50;74.42;99811.09;4895135;29;20036;-77
2021/12/07 04:58:58;;;;;;;17.55;6.65;;;;;;;-1.59;74.43;99786.94;4876924;29;20044;-77
2021/12/07 05:01:25;;;;;;;11.48;5.93;;;;;;;-1.68;74.80;99777.22;4893469;29;20064;-79
2021/12/07 05:03:54;;;;;;;15.48;6.45;;;;;;;-1.67;74.64;99771.31;4892484;29;20052;-77
2021/12/07 05:06:26;;;;;;;11.15;5.57;;;;;;;-1.60;74.55;99785.19;4891802;29;20044;-75
2021/12/07 05:08:58;;;;;;;12.45;5.95;;;;;;;-1.70;74.89;99778.84;4876530;29;20519;-76
2021/12/07 05:11:33;;;;;;;7.63;4.38;;;;;;;-1.75;75.46;99753.97;4893046;29;20056;-75
2021/12/07 05:38:29;;;;;;;9.52;5.07;;;;;;;-1.07;75.99;99751.47;4905561;29;20727;-77
2021/12/07 05:40:55;;;;;;;11.90;4.38;;;;;;;-1.24;75.75;99731.28;4889190;29;20056;-79
2021/12/07 05:43:21;;;;;;;8.65;4.38;;;;;;;-1.29;74.82;99748.09;4890753;29;20113;-76
2021/12/07 05:45:47;;;;;;;9.13;4.78;;;;;;;-1.61;75.16;99711.13;4876274;29;20378;-75
2021/12/07 05:48:13;;;;;;;9.23;4.40;;;;;;;-1.52;75.17;99722.56;4891086;29;20040;-78
2021/12/07 05:50:40;;;;;;;9.57;4.43;;;;;;;-1.38;75.68;99735.84;4891931;29;20112;-78
2021/12/07 05:53:08;;;;;;;8.85;4.70;;;;;;;-1.34;76.10;99739.38;4889233;29;20044;-76
2021/12/07 05:55:34;;;;;;;7.70;4.13;;;;;;;-1.29;75.82;99739.56;4892182;29;20044;-79
2021/12/07 05:58:00;;;;;;;8.25;4.18;;;;;;;-1.20;76.14;99739.91;4893121;29;20083;-75
2021/12/07 06:00:36;;;;;;;7.53;4.05;;;;;;;-1.14;75.21;99737.59;4892328;29;20052;-76
2021/12/07 06:03:05;;;;;;;7.28;4.10;;;;;;;-1.35;75.18;99716.38;4892397;29;20052;-76
2021/12/07 06:05:32;;;;;;;7.05;4.30;;;;;;;-1.32;75.19;99721.59;4893018;29;20044;-78
2021/12/07 06:07:58;;;;;;;9.40;4.63;;;;;;;-1.20;76.24;99727.16;4892559;29;20073;-75
2021/12/07 06:10:28;;;;;;;6.63;3.88;;;;;;;-1.19;75.67;99721.22;4892394;29;20040;-76
2021/12/07 06:12:56;;;;;;;8.63;4.05;;;;;;;-1.01;76.05;99725.25;4878239;29;20044;-77
2021/12/07 06:15:24;;;;;;;6.47;3.60;;;;;;;-1.07;76.49;99706.34;4890327;29;20040;-79
2021/12/07 06:17:52;;;;;;;8.18;4.03;;;;;;;-0.91;75.78;99730.75;4901373;29;20075;-75
2021/12/07 06:20:21;;;;;;;6.60;3.70;;;;;;;-0.98;75.31;99716.00;4891047;29;20049;-77
2021/12/07 06:22:47;;;;;;;9.15;3.88;;;;;;;-1.02;75.30;99734.63;4889443;29;20122;-77
2021/12/07 06:25:19;;;;;;;7.32;3.88;;;;;;;-1.90;75.31;99599.50;4879180;29;20612;-77
2021/12/07 06:27:50;;;;;;;7.10;3.97;;;;;;;-1.03;75.57;99738.00;4902143;29;20055;-78
2021/12/07 06:30:16;;;;;;;8.50;3.70;;;;;;;-1.10;75.23;99734.31;4892316;29;20044;-79
2021/12/07 06:32:42;;;;;;;6.28;3.20;;;;;;;-1.24;75.48;99733.84;4898909;29;20436;-79
2021/12/07 06:35:09;;;;;;;7.88;3.80;;;;;;;-1.23;76.12;99712.59;4895190;29;20063;-77
2021/12/07 06:37:36;;;;;;;5.97;3.13;;;;;;;-0.89;76.60;99732.50;4914687;29;20048;-76
2021/12/07 06:40:05;;;;;;;7.65;3.80;;;;;;;-0.82;76.29;99737.88;4900411;29;20115;-76
2021/12/07 06:42:30;;;;;;;7.10;3.53;;;;;;;-0.86;76.33;99712.19;4894692;29;20383;-75
2021/12/07 06:44:56;;;;;;;5.75;3.10;;;;;;;-0.93;76.37;99688.97;4891258;29;20051;-77
2021/12/07 06:47:21;;;;;;;6.03;3.53;;;;;;;-0.91;75.92;99697.56;4891006;29;20092;-78
2021/12/07 06:49:49;;;;;;;8.32;3.05;;;;;;;-0.77;75.35;99723.59;4894172;29;20044;-77
2021/12/07 06:52:17;;;;;;;5.72;2.70;;;;;;;-1.14;75.90;99677.97;4870324;29;20052;-78
2021/12/07 06:54:46;;;;;;;6.22;2.67;;;;;;;-0.90;75.45;99726.53;4896060;29;20045;-75
2021/12/07 06:57:12;;;;;;;5.25;2.75;;;;;;;-1.07;74.96;99716.56;4898923;29;20044;-75
2021/12/07 06:59:38;;;;;;;7.20;3.45;;;;;;;-1.01;76.27;99718.50;4899417;29;20044;-78
2021/12/07 07:02:07;;;;;;;4.40;2.55;;;;;;;-1.03;76.68;99720.13;4882858;29;20348;-76
2021/12/07 07:04:42;;;;;;;4.25;2.58;;;;;;;-0.96;76.71;99709.28;4881915;29;20403;-77
2021/12/07 07:07:07;;;;;;;5.95;2.63;;;;;;;-1.01;76.49;99686.94;4896529;29;20037;-79
2021/12/07 07:09:33;;;;;;;4.15;2.63;;;;;;;-0.79;77.16;99699.66;4900130;29;20040;-76
2021/12/07 07:12:06;;;;;;;5.28;3.15;;;;;;;-0.83;75.50;99702.06;4878342;29;20092;-76
2021/12/07 07:14:32;;;;;;;6.13;2.92;;;;;;;-1.03;75.65;99699.69;4899487;29;20048;-78
2021/12/07 07:16:58;;;;;;;5.35;2.78;;;;;;;-1.04;75.84;99718.38;4901301;29;20040;-76
2021/12/07 07:19:24;;;;;;;4.43;2.78;;;;;;;-1.01;76.56;99705.72;4899563;29;20618;-76
2021/12/07 07:21:53;;;;;;;4.40;2.75;;;;;;;-1.03;75.74;99688.56;4902902;29;20528;-77
2021/12/07 07:24:18;;;;;;;4.97;2.80;;;;;;;-0.94;76.90;99694.88;4900144;29;20044;-80
2021/12/07 07:26:51;;;;;;;4.70;2.58;;;;;;;-0.70;76.39;99708.50;4899562;29;20120;-77
2021/12/07 07:29:23;;;;;;;6.28;3.70;;;;;;;-0.58;76.13;99710.59;4900886;29;20036;-77
2021/12/07 07:31:49;;;;;;;;;;;;;;;-0.61;75.70;99712.25;4916539;29;20048;-78
2021/12/07 07:34:19;;;;;;;3.97;2.72;;;;;;;-0.70;75.52;99713.59;4899854;29;19926;-76
2021/12/07 07:36:48;;;;;;;4.03;2.70;;;;;;;-1.26;76.42;99600.13;4902900;29;20040;-79
2021/12/07 07:39:14;;;;;;;4.45;2.83;;;;;;;-0.72;76.43;99689.69;4899948;29;20080;-75
2021/12/07 07:41:40;;;;;;;4.00;2.40;;;;;;;-0.89;75.93;99627.75;4886078;29;20041;-75
2021/12/07 07:44:09;;;;;;;5.30;2.63;;;;;;;-1.17;76.28;99591.91;4897793;29;20040;-75
2021/12/07 07:46:44;;;;;;;4.10;2.30;;;;;;;-0.90;76.25;99657.56;4903257;29;20040;-76
2021/12/07 07:49:14;;;;;;;5.38;2.60;;;;;;;-0.82;75.51;99661.22;4900569;29;20577;-75
2021/12/07 07:51:45;;;;;;;4.28;2.42;;;;;;;-0.55;76.60;99696.22;4886412;29;20425;-77
2021/12/07 07:54:11;;;;;;;5.80;2.90;;;;;;;-0.73;75.25;99675.16;4897191;29;20071;-78
2021/12/07 07:56:40;;;;;;;4.85;2.72;;;;;;;-0.54;76.78;99680.06;4901705;29;20045;-77
2021/12/07 07:59:10;;;;;;;5.25;2.58;;;;;;;-0.76;75.89;99645.22;4892560;29;20048;-77
2021/12/07 08:01:36;;;;;;;5.45;3.22;;;;;;;-0.63;76.48;99632.06;4882043;29;20615;-79
2021/12/07 08:04:04;;;;;;;4.70;2.10;;;;;;;-0.76;76.31;99594.13;4913037;29;20422;-78
2021/12/07 08:06:34;;;;;;;3.70;2.42;;;;;;;-0.56;75.52;99632.28;4911716;29;20139;-78
2021/12/07 08:09:00;;;;;;;3.83;2.25;;;;;;;-1.06;75.17;99531.84;4898262;29;20044;-78
2021/12/07 08:11:27;;;;;;;4.50;2.35;;;;;;;-0.07;76.55;99674.78;4889901;29;20044;-78
2021/12/07 08:13:57;;;;;;;3.22;2.08;;;;;;;-0.05;75.37;99690.19;4882968;29;20049;-77
2021/12/07 08:16:25;;;;;;;6.00;2.53;;;;;;;-0.21;75.45;99655.56;4866903;29;20051;-77
2021/12/07 08:18:52;;;;;;;6.13;2.30;;;;;;;-0.21;75.63;99655.56;4895060;29;20421;-76
2021/12/07 08:21:38;;;;;;;3.45;2.30;;;;;;;-0.18;75.86;99651.41;4894981;29;20135;-79
2021/12/07 08:24:11;;;;;;;4.10;2.47;;;;;;;-0.75;76.16;99570.31;4861509;29;20131;-79
2021/12/07 08:27:04;;;;;;;5.83;2.73;;;;;;;-0.64;76.20;99558.75;4876819;29;20438;-77
2021/12/07 08:29:35;;;;;;;2.70;2.17;;;;;;;-1.23;76.24;99428.25;4894871;29;20391;-77
2021/12/07 08:32:10;;;;;;;3.05;2.22;;;;;;;-0.95;75.97;99468.31;4896287;29;20526;-79
2021/12/07 08:34:58;;;;;;;3.63;2.50;;;;;;;-0.70;75.75;99492.09;4901338;29;20122;-76
2021/12/07 08:37:31;;;;;;;3.80;2.45;;;;;;;0.19;75.41;99638.91;4900117;29;20055;-78
2021/12/07 08:40:53;;;;;;;;;;;;;;;;;;;;;
2021/12/07 08:44:00;;;;;;;4.28;2.28;;;;;;;0.11;75.43;99651.47;4873797;29;20045;-78
2021/12/07 08:47:13;;;;;;;4.90;2.60;;;;;;;-1.30;76.00;99386.34;4886075;29;20068;-80
2021/12/07 08:50:21;;;;;;;3.88;2.45;;;;;;;0.05;75.77;99591.56;4875165;29;20427;-80
2021/12/07 09:01:23;;;;;;;3.28;2.35;;;;;;;-1.19;75.44;99376.47;4758902;30;20063;-78
2021/12/07 09:04:20;;;;;;;;;;;;;;;;;;;;;
2021/12/07 09:07:38;;;;;;;3.15;2.03;;;;;;;0.20;75.10;99617.63;4805676;29;20061;-83
2021/12/07 09:10:49;;;;;;;3.20;2.25;;;;;;;-0.09;75.42;99534.88;4802233;29;20514;-81
2021/12/07 09:13:55;;;;;;;4.68;2.45;;;;;;;-1.59;75.14;99286.72;4858322;29;20139;-81
2021/12/07 09:16:46;;;;;;;3.17;2.08;;;;;;;0.36;75.13;99615.50;4895787;29;20045;-79
2021/12/07 09:19:56;;;;;;;3.92;2.03;;;;;;;0.10;74.73;99659.13;4872575;29;20055;-81
2021/12/07 09:22:37;;;;;;;5.05;2.22;;;;;;;-1.03;76.01;99435.69;4897236;29;20073;-80
2021/12/07 09:25:15;;;;;;;4.15;2.30;;;;;;;-0.05;74.77;99591.28;4894801;29;20442;-80
2021/12/07 09:27:41;;;;;;;3.95;2.05;;;;;;;0.13;75.55;99603.78;4892144;29;20051;-81
2021/12/07 09:30:15;;;;;;;3.38;2.13;;;;;;;-0.13;75.58;99568.84;4916033;23;20049;-80
2021/12/07 09:32:42;;;;;;;5.43;2.65;;;;;;;-0.11;75.64;99559.53;4909490;29;20112;-80
2021/12/07 09:35:15;;;;;;;3.70;2.60;;;;;;;-0.95;75.50;99404.47;4898402;29;20036;-80
2021/12/07 09:38:15;;;;;;;3.72;2.30;;;;;;;-0.22;75.94;99490.16;4892098;29;20055;-78
2021/12/07 09:44:42;;;;;;;4.25;2.30;;;;;;;0.17;75.18;99591.06;4911853;29;20108;-79
2021/12/07 09:47:31;;;;;;;4.10;2.20;;;;;;;-1.61;74.90;99313.88;4909827;29;20730;-79
2021/12/07 09:50:18;;;;;;;3.17;2.05;;;;;;;0.08;74.88;99589.09;4901271;29;20040;-78
2021/12/07 09:52:48;;;;;;;3.90;2.55;;;;;;;-0.07;75.83;99576.72;4893899;29;20549;-79
2021/12/07 09:56:00;;;;;;;3.75;2.05;;;;;;;-1.74;75.15;99278.59;4900883;29;20044;-79
2021/12/07 09:58:29;;;;;;;4.40;2.33;;;;;;;-1.61;74.99;99292.59;4901891;29;20135;-77
2021/12/07 10:00:59;;;;;;;3.35;2.00;;;;;;;-0.44;75.61;99468.19;4881696;29;20506;-77
2021/12/07 10:03:25;;;;;;;4.25;2.17;;;;;;;0.28;75.56;99588.00;4912247;29;20044;-77
2021/12/07 10:05:55;;;;;;;3.65;2.20;;;;;;;0.25;74.85;99577.69;4913725;29;20751;-79
2021/12/07 10:08:21;;;;;;;4.68;2.25;;;;;;;0.16;75.86;99564.59;4892845;29;20517;-77
2021/12/07 10:11:10;;;;;;;5.32;2.60;;;;;;;-0.12;74.87;99504.97;4882645;29;20032;-78
2021/12/07 10:13:43;;;;;;;3.53;2.30;;;;;;;-0.18;75.60;99484.31;4879801;29;20040;-80
2021/12/07 10:16:13;;;;;;;4.18;2.42;;;;;;;0.28;75.52;99566.66;4891301;29;20042;-77
2021/12/07 10:18:49;;;;;;;3.42;2.10;;;;;;;-0.54;74.82;99436.34;4894780;29;20040;-77
2021/12/07 10:21:27;;;;;;;4.82;2.38;;;;;;;-0.49;75.34;99442.47;4891506;29;20092;-81
2021/12/07 10:24:06;;;;;;;3.28;2.08;;;;;;;0.41;75.93;99573.88;4910315;29;20119;-79
2021/12/07 10:26:40;;;;;;;3.20;2.00;;;;;;;-0.94;75.53;99347.44;4880288;29;20059;-80
2021/12/07 10:29:21;;;;;;;5.22;2.67;;;;;;;-0.85;75.90;99367.28;4894966;29;20051;-80
2021/12/07 10:31:51;;;;;;;;;;;;;;;0.38;74.98;99578.00;4909160;29;20059;-77
2021/12/07 10:34:41;;;;;;;5.03;2.30;;;;;;;0.49;75.91;99580.88;4908465;29;19926;-78
2021/12/07 10:37:14;;;;;;;3.55;2.50;;;;;;;0.56;75.69;99586.22;4895325;29;20363;-78
2021/12/07 10:39:51;;;;;;;3.22;2.13;;;;;;;-0.21;75.14;99427.94;4889483;29;20210;-77
2021/12/07 10:42:27;;;;;;;2.58;2.10;;;;;;;-1.02;75.09;99281.63;4911998;29;20095;-79
2021/12/07 10:45:40;;;;;;;3.85;2.50;;;;;;;-0.46;75.05;99388.88;4882017;29;20118;-81
2021/12/07 10:48:27;;;;;;;4.50;2.45;;;;;;;-0.24;75.00;99415.06;4908567;29;20075;-78
2021/12/07 10:50:58;;;;;;;4.28;2.40;;;;;;;0.57;75.12;99535.88;4900937;29;20051;-77
2021/12/07 10:53:40;;;;;;;4.00;2.15;;;;;;;-0.53;74.91;99364.81;4891712;29;20450;-80
2021/12/07 10:56:51;;;;;;;3.53;2.35;;;;;;;0.68;75.37;99551.53;4876467;29;20502;-78
2021/12/07 10:59:17;;;;;;;4.57;2.03;;;;;;;0.01;75.15;99431.97;4871539;29;20553;-76
2021/12/07 11:01:55;;;;;;;3.67;2.17;;;;;;;0.67;74.41;99537.00;4871148;29;20044;-77
2021/12/07 11:04:59;;;;;;;3.78;2.40;;;;;;;-0.41;75.18;99361.75;4872970;29;20132;-78
2021/12/07 11:07:32;;;;;;;6.25;2.42;;;;;;;0.49;75.58;99466.53;4814677;29;20082;-77
2021/12/07 11:10:17;;;;;;;4.20;2.28;;;;;;;0.92;75.18;99537.66;4904394;29;20052;-76
2021/12/07 11:13:25;;;;;;;4.90;2.60;;;;;;;0.57;74.73;99484.66;4909705;29;20060;-78
2021/12/07 11:15:54;;;;;;;4.72;2.50;;;;;;;0.71;74.10;99541.38;4910434;29;20430;-77
2021/12/07 11:18:35;;;;;;;3.55;2.45;;;;;;;0.10;75.00;99436.50;4910120;29;20044;-79
2021/12/07 11:31:49;;;;;;;3.88;2.42;;;;;;;0.60;74.81;99541.09;4910364;29;20136;-77
2021/12/07 11:37:22;;;;;;;3.85;2.25;;;;;;;0.69;75.61;99546.44;4904019;29;20048;-76
2021/12/07 11:39:56;;;;;;;3.88;2.58;;;;;;;0.69;75.06;99541.31;4916618;29;20040;-76
2021/12/07 11:42:36;;;;;;;4.38;2.38;;;;;;;0.67;75.35;99534.44;4914700;29;20630;-78
2021/12/07 11:45:30;;;;;;;4.32;2.47;;;;;;;0.68;75.16;99547.28;4914026;29;20441;-82
2021/12/07 11:48:02;;;;;;;4.43;2.63;;;;;;;0.76;75.87;99544.94;4902134;29;20094;-77
2021/12/07 11:50:41;;;;;;;5.18;2.40;;;;;;;0.84;75.30;99540.88;4904127;29;20071;-79
2021/12/07 11:53:11;;;;;;;4.75;2.60;;;;;;;0.93;75.58;99535.13;4927696;29;20486;-78
2021/12/07 11:55:40;;;;;;;3.42;2.40;;;;;;;0.78;74.60;99515.06;4894673;29;20079;-77
2021/12/07 11:58:10;;;;;;;4.03;2.60;;;;;;;0.68;74.53;99534.47;4910651;29;20043;-77
2021/12/07 12:00:41;;;;;;;3.90;2.83;;;;;;;0.69;75.40;99535.34;4910360;29;20047;-79
2021/12/07 12:03:13;;;;;;;3.40;2.70;;;;;;;0.74;75.00;99550.00;4915974;29;20051;-75
2021/12/07 12:06:21;;;;;;;3.60;2.40;;;;;;;0.64;75.21;99516.41;4912105;29;20421;-78
2021/12/07 12:08:54;;;;;;;3.58;2.42;;;;;;;0.17;75.31;99432.41;4899710;29;20740;-79
2021/12/07 12:11:34;;;;;;;4.82;2.60;;;;;;;0.22;74.88;99436.81;4915768;29;20046;-77
2021/12/07 12:14:37;;;;;;;6.70;4.07;;;;;;;0.92;75.28;99535.09;4915373;29;20047;-78
2021/12/07 12:17:42;;;;;;;3.47;2.15;;;;;;;0.74;75.26;99478.28;4917174;29;20135;-77
2021/12/07 12:20:11;;;;;;;3.92;2.20;;;;;;;0.96;75.65;99549.72;4913778;29;20410;-80
2021/12/07 12:23:15;;;;;;;3.47;2.35;;;;;;;0.46;75.19;99461.34;4900983;29;20047;-76
2021/12/07 12:26:02;;;;;;;4.45;2.60;;;;;;;0.68;74.91;99482.38;4909439;29;20088;-79
2021/12/07 12:28:47;;;;;;;4.40;2.60;;;;;;;-0.35;74.65;99335.47;4915407;29;20127;-79
2021/12/07 12:32:15;;;;;;;2.30;2.00;;;;;;;1.05;75.12;99549.94;4887068;29;20136;-80
2021/12/07 12:34:49;;;;;;;4.13;2.25;;;;;;;0.10;74.90;99416.03;4895893;29;20522;-78
2021/12/07 12:37:51;;;;;;;3.92;2.45;;;;;;;0.97;74.93;99583.06;4899954;29;20115;-76
2021/12/07 12:41:00;;;;;;;3.13;1.95;;;;;;;0.95;75.53;99558.22;4886358;29;20056;-77
2021/12/07 12:44:09;;;;;;;4.10;2.15;;;;;;;0.96;74.68;99565.94;4904449;29;20037;-79
2021/12/07 12:47:19;;;;;;;;;;;;;;;;;;;;;
2021/12/07 12:49:46;;;;;;;4.13;1.90;;;;;;;0.34;75.21;99414.91;4903491;29;20154;-78
2021/12/07 12:53:31;;;;;;;3.55;2.42;;;;;;;1.30;75.02;99565.94;4881352;29;20071;-78
2021/12/07 12:56:00;;;;;;;3.47;2.20;;;;;;;0.12;74.75;99376.84;4835552;29;20105;-78
2021/12/07 12:58:51;;;;;;;3.97;2.33;;;;;;;-0.06;75.51;99346.50;4889167;29;20114;-79
2021/12/07 13:02:29;;;;;;;4.53;2.25;;;;;;;1.30;75.85;99568.50;4923673;29;20091;-80
2021/12/07 13:06:04;;;;;;;4.47;2.85;;;;;;;0.02;75.75;99322.81;4877350;29;20048;-77
2021/12/07 13:09:21;;;;;;;5.72;3.00;;;;;;;1.52;75.61;99559.66;4897344;29;20083;-79
2021/12/07 13:12:20;;;;;;;4.82;2.65;;;;;;;1.58;75.31;99564.06;4886668;29;20127;-77
2021/12/07 13:15:15;;;;;;;3.58;2.58;;;;;;;0.24;74.27;99355.81;4916788;29;20099;-78
2021/12/07 13:18:03;;;;;;;4.38;3.20;;;;;;;0.08;74.39;99325.56;4909490;29;20104;-80
2021/12/07 13:21:43;;;;;;;;;;;;;;;;;;;;;
2021/12/07 13:25:27;;;;;;;;;;;;;;;;;;;;;
2021/12/07 13:28:10;;;;;;;7.85;3.88;;;;;;;1.63;74.89;99541.94;4909282;29;20076;-78
2021/12/07 13:31:26;;;;;;;6.85;4.18;;;;;;;0.58;74.79;99402.75;4907082;29;20059;-79
2021/12/07 13:33:57;;;;;;;5.38;2.85;;;;;;;0.73;74.23;99444.97;4841897;29;20121;-78
2021/12/07 13:36:42;;;;;;;5.05;3.10;;;;;;;1.32;75.23;99544.66;4847498;29;20041;-80
2021/12/07 13:39:24;;;;;;;5.38;2.92;;;;;;;1.49;75.54;99539.06;4887663;29;20048;-79
2021/12/07 13:42:11;;;;;;;7.15;3.20;;;;;;;1.60;74.74;99535.03;4900243;29;20040;-78
2021/12/07 13:45:02;;;;;;;5.35;3.58;;;;;;;1.67;75.25;99545.44;4940763;29;20055;-79
2021/12/07 13:47:34;;;;;;;5.03;3.03;;;;;;;0.30;75.27;99311.59;4917426;29;20055;-80
2021/12/07 13:50:14;;;;;;;4.97;3.08;;;;;;;1.49;75.13;99508.28;4935092;29;20583;-79
2021/12/07 13:52:59;;;;;;;4.95;3.10;;;;;;;1.42;75.24;99486.78;4930261;29;20040;-81
2021/12/07 13:55:40;;;;;;;6.65;3.30;;;;;;;1.54;75.65;99503.25;4912627;29;20047;-79
2021/12/07 13:58:09;;;;;;;6.85;3.45;;;;;;;1.74;74.72;99560.16;4896195;29;20041;-77
2021/12/07 14:01:02;;;;;;;4.65;3.03;;;;;;;0.40;75.29;99351.06;4913217;29;20052;-79
2021/12/07 14:04:39;;;;;;;4.75;3.17;;;;;;;0.51;74.93;99380.41;4898175;29;20111;-81
2021/12/07 14:07:07;;;;;;;5.03;3.15;;;;;;;1.12;74.95;99459.56;4921385;29;20071;-79
2021/12/07 14:09:39;;;;;;;5.65;3.38;;;;;;;1.29;75.42;99477.91;4921376;29;20048;-79
2021/12/07 14:12:06;;;;;;;5.47;3.15;;;;;;;1.69;75.18;99549.75;4921267;29;20530;-78
2021/12/07 14:14:42;;;;;;;5.03;3.22;;;;;;;1.77;74.89;99568.78;4917952;29;20060;-80
2021/12/07 14:17:18;;;;;;;5.82;3.30;;;;;;;0.38;75.02;99348.50;4903308;29;20076;-78
2021/12/07 14:20:00;;;;;;;4.53;3.20;;;;;;;1.15;74.76;99475.03;4906867;29;20040;-78
2021/12/07 14:22:29;;;;;;;6.30;3.10;;;;;;;0.91;74.87;99411.22;4913507;29;20040;-78
2021/12/07 14:24:56;;;;;;;4.72;3.35;;;;;;;0.93;75.01;99447.16;4927573;29;20071;-78
2021/12/07 14:27:22;;;;;;;7.95;4.50;;;;;;;0.28;75.00;99336.28;4907715;29;20046;-78